Weather forecasts are calculated to a 100 metre elevation grid, providing ultimate accuracy for high elevation routes. See the “severe weather” column for any noteworthy conditions.
For use of the snow symbols: HWC = high water content (wet snow). MWC = moderate water content. NWC = low water content (powder type). Confidence of snow accumulation is increased during incidence of NWC.


Time. Apparent Temperature Rain Cloud Dir Avg. Wind Gust. Wind Snow Accum. Chance of settle. Freezing height(beta) Dew Point Severe Weather
Sat 21st 16:00 15.0°C 0.0 mm 84% 12 mph 23 mph 0.00 cm % 1,504m 8.4°C
17:00 14.6°C 0.0 mm 85% 11 mph 20 mph 0.00 cm % 1,459m 8.2°C
18:00 14.1°C rainfall in vicinity 0.1 mm 82% 10 mph 19 mph 0.00 cm % 1,884m 8.3°C
19:00 12.7°C rainfall in vicinity 0.1 mm 94% 9 mph 17 mph 0.00 cm % 1,695m 7.9°C
20:00 10.5°C 0.0 mm 76% 7 mph 13 mph 0.00 cm % 1,744m 7.1°C
21:00 7.9°C 0.0 mm 83% 6 mph 11 mph 0.00 cm % 1,588m 5.9°C
22:00 7.5°C 0.0 mm 87% 6 mph 11 mph 0.00 cm % 1,492m 5.5°C
23:00 6.8°C 0.0 mm 88% 7 mph 13 mph 0.00 cm % 1,358m 4.8°C
Sun 22nd 00:00 6.5°C 0.0 mm 90% 6 mph 12 mph 0.00 cm % 1,298m 4.9°C
01:00 6.6°C 0.0 mm 100% 7 mph 12 mph 0.00 cm % 1,322m 5.2°C
02:00 6.3°C 0.0 mm 100% 8 mph 14 mph 0.00 cm % 1,256m 4.7°C
03:00 6.2°C 0.0 mm 100% 8 mph 15 mph 0.00 cm % 1,031m 4.0°C
04:00 6.0°C 0.0 mm 100% 9 mph 16 mph 0.00 cm % 1,005m 3.8°C
05:00 6.6°C 0.0 mm 100% 8 mph 14 mph 0.00 cm % 1,314m 4.8°C
06:00 8.6°C 0.0 mm 100% 9 mph 16 mph 0.00 cm % 1,712m 6.6°C
07:00 10.0°C 0.0 mm 100% 11 mph 20 mph 0.00 cm % 1,669m 7.4°C
08:00 10.9°C 0.0 mm 100% 13 mph 23 mph 0.00 cm % 1,820m 7.9°C
09:00 11.3°C 0.0 mm 100% 14 mph 26 mph 0.00 cm % 1,885m 8.3°C
10:00 12.5°C 0.0 mm 100% 16 mph 30 mph 0.00 cm % 2,085m 9.1°C
11:00 13.0°C 0.0 mm 100% 15 mph 27 mph 0.00 cm % 2,165m 9.2°C
12:00 13.6°C rainfall in vicinity 0.1 mm 100% 17 mph 31 mph 0.00 cm % 2,269m 9.6°C
13:00 14.0°C 0.0 mm 100% 18 mph 33 mph 0.00 cm % 1,863m 9.8°C
14:00 13.9°C rainfall in vicinity 0.1 mm 99% 17 mph 31 mph 0.00 cm % 2,308m 10.1°C
15:00 13.1°C rainfall in vicinity 0.3 mm 99% 14 mph 26 mph 0.00 cm % 2,183m 10.1°C
16:00 12.8°C 0.0 mm 99% 9 mph 17 mph 0.00 cm % 2,133m 10.2°C
17:00 13.7°C rainfall in vicinity 0.3 mm 99% 11 mph 20 mph 0.00 cm % 2,285m 10.3°C
18:00 13.1°C light rain 0.3 mm 99% 10 mph 19 mph 0.00 cm % 2,185m 10.7°C
19:00 12.2°C rainfall in vicinity 0.2 mm 97% 11 mph 20 mph 0.00 cm % 2,436m 10.2°C
20:00 11.0°C 0.0 mm 99% 7 mph 12 mph 0.00 cm % 2,208m 9.8°C
21:00 10.5°C 0.0 mm 99% 7 mph 13 mph 0.00 cm % 2,104m 9.5°C
22:00 9.9°C 0.0 mm 98% 7 mph 14 mph 0.00 cm % 1,980m 8.9°C
23:00 10.2°C mist/fog in vicinity 0.0 mm 99% 8 mph 14 mph 0.00 cm % 2,034m 9.4°C poor vis, mist
Mon 23rd 00:00 9.9°C 0.0 mm 99% 10 mph 17 mph 0.00 cm % 1,986m 8.9°C
01:00 9.5°C mist/fog in vicinity 0.0 mm 98% 9 mph 16 mph 0.00 cm % 1,908m 8.9°C poor vis, mist
02:00 9.6°C mist/fog in vicinity 0.0 mm 99% 8 mph 14 mph 0.00 cm % 1,926m 8.8°C poor vis, mist
03:00 9.6°C mist/fog in vicinity 0.0 mm 99% 7 mph 13 mph 0.00 cm % 1,916m 9.0°C poor vis, mist
04:00 9.3°C mist/fog in vicinity 0.0 mm 99% 6 mph 11 mph 0.00 cm % 1,862m 8.7°C poor vis, mist
05:00 9.3°C mist/fog in vicinity 0.0 mm 100% 6 mph 12 mph 0.00 cm % 1,864m 8.7°C poor vis, mist
06:00 9.2°C mist/fog in vicinity 0.0 mm 100% 6 mph 12 mph 0.00 cm % 1,844m 8.6°C poor vis, mist
07:00 9.4°C 0.0 mm 100% 6 mph 11 mph 0.00 cm % 1,882m 8.4°C
08:00 10.0°C 0.0 mm 100% 6 mph 11 mph 0.00 cm % 2,002m 8.0°C
09:00 10.9°C 0.0 mm 100% 6 mph 11 mph 0.00 cm % 1,823m 7.7°C
10:00 11.9°C 0.0 mm 100% 7 mph 13 mph 0.00 cm % 1,590m 7.5°C
11:00 12.2°C 0.0 mm 100% 8 mph 15 mph 0.00 cm % 1,630m 7.0°C
12:00 12.8°C 0.0 mm 100% 8 mph 15 mph 0.00 cm % 1,283m 6.4°C
13:00 13.5°C 0.0 mm 100% 8 mph 14 mph 0.00 cm % 1,351m 6.1°C
14:00 13.4°C 0.0 mm 100% 10 mph 19 mph 0.00 cm % 1,337m 5.8°C
15:00 11.8°C rainfall in vicinity 0.2 mm 100% 11 mph 20 mph 0.00 cm % 1,575m 6.8°C
16:00 11.8°C light rain 0.4 mm 100% 12 mph 22 mph 0.00 cm % 1,570m 6.8°C
17:00 9.9°C light rain 0.9 mm 100% 12 mph 22 mph 0.00 cm % 1,654m 7.3°C
18:00 8.9°C light rain 0.7 mm 100% 12 mph 22 mph 0.00 cm % 1,772m 7.1°C
19:00 8.0°C light rain 0.5 mm 100% 9 mph 16 mph 0.00 cm % 1,596m 6.8°C
20:00 7.8°C light rain 0.3 mm 100% 7 mph 12 mph 0.00 cm % 1,554m 6.6°C
21:00 7.4°C 0.0 mm 100% 8 mph 15 mph 0.00 cm % 1,476m 6.4°C
22:00 7.2°C mist/fog in vicinity 0.0 mm 100% 9 mph 17 mph 0.00 cm % 1,430m 6.4°C poor vis, mist
23:00 6.8°C mist/fog in vicinity 0.0 mm 100% 10 mph 18 mph 0.00 cm % 1,368m 6.2°C poor vis, mist
Tue 24th 00:00 6.5°C mist/fog in vicinity 0.0 mm 100% 12 mph 21 mph 0.00 cm % 1,300m 5.7°C poor vis, mist
01:00 5.9°C mist/fog in vicinity 0.0 mm 100% 13 mph 23 mph 0.00 cm % 1,186m 5.1°C poor vis, mist
02:00 5.4°C mist/fog in vicinity 0.0 mm 100% 14 mph 25 mph 0.00 cm % 1,078m 4.8°C poor vis, mist
03:00 5.5°C mist/fog in vicinity 0.0 mm 97% 15 mph 28 mph 0.00 cm % 1,102m 4.9°C poor vis, mist
04:00 6.1°C 0.0 mm 98% 19 mph 35 mph 0.00 cm % 1,212m 4.9°C
05:00 6.2°C 0.0 mm 98% 20 mph 37 mph 0.00 cm % 1,234m 4.4°C Slight Gale
06:00 6.5°C 0.0 mm 98% 21 mph 39 mph 0.00 cm % 1,292m 4.5°C Slight Gale
07:00 7.0°C 0.0 mm 100% 22 mph 40 mph 0.00 cm % 1,170m 4.4°C Slight Gale
08:00 7.9°C 0.0 mm 100% 22 mph 40 mph 0.00 cm % 1,310m 4.5°C Slight Gale
09:00 9.0°C 0.0 mm 98% 21 mph 39 mph 0.00 cm % 1,201m 4.6°C Slight Gale
10:00 9.8°C 0.0 mm 95% 22 mph 39 mph 0.00 cm % 979m 3.4°C Slight Gale
11:00 10.4°C 0.0 mm 90% 21 mph 39 mph 0.00 cm % 1,037m 3.0°C Slight Gale
12:00 10.6°C 0.0 mm 88% 22 mph 39 mph 0.00 cm % 1,058m 3.2°C Slight Gale
13:00 11.1°C 0.0 mm 82% 21 mph 38 mph 0.00 cm % 1,114m 3.1°C Slight Gale
14:00 11.4°C 0.0 mm 75% 21 mph 39 mph 0.00 cm % 1,135m 3.2°C Slight Gale
15:00 11.2°C 0.0 mm 56% 21 mph 39 mph 0.00 cm % 1,115m 3.2°C Slight Gale
16:00 10.8°C 0.0 mm 43% 21 mph 38 mph 0.00 cm % 1,081m 3.0°C Slight Gale
17:00 10.5°C 0.0 mm 35% 18 mph 33 mph 0.00 cm % 1,049m 3.7°C
18:00 9.9°C 0.0 mm 29% 15 mph 28 mph 0.00 cm % 1,315m 3.9°C
19:00 9.0°C 0.0 mm 1% 12 mph 22 mph 0.00 cm % 1,201m 4.0°C
20:00 7.0°C 0.0 mm 10% 11 mph 20 mph 0.00 cm % 1,170m 4.0°C
21:00 6.3°C 0.0 mm 8% 12 mph 21 mph 0.00 cm % 1,050m 4.1°C
22:00 5.7°C 0.0 mm 23% 10 mph 18 mph 0.00 cm % 1,138m 3.7°C
23:00 5.2°C 0.0 mm 32% 9 mph 17 mph 0.00 cm % 1,040m 3.4°C
Wed 25th 00:00 5.5°C 0.0 mm 43% 9 mph 17 mph 0.00 cm % 1,100m 3.9°C
01:00 5.5°C 0.0 mm 100% 10 mph 18 mph 0.00 cm % 1,096m 4.3°C
02:00 5.2°C mist/fog in vicinity 0.0 mm 97% 9 mph 16 mph 0.00 cm % 1,032m 4.4°C poor vis, mist
03:00 4.7°C mist/fog in vicinity 0.0 mm 95% 8 mph 15 mph 0.00 cm % 936m 3.9°C poor vis, mist
04:00 4.7°C mist/fog in vicinity 0.0 mm 97% 10 mph 19 mph 0.00 cm % 948m 3.9°C poor vis, mist
05:00 5.7°C 0.0 mm 97% 13 mph 24 mph 0.00 cm % 1,132m 3.9°C
06:00 6.8°C 0.0 mm 97% 15 mph 28 mph 0.00 cm % 1,130m 4.0°C
07:00 8.3°C 0.0 mm 92% 20 mph 36 mph 0.00 cm % 1,375m 4.9°C Slight Gale
08:00 8.9°C 0.0 mm 96% 22 mph 41 mph 0.00 cm % 1,485m 5.5°C Slight Gale
09:00 9.7°C 0.0 mm 97% 21 mph 38 mph 0.00 cm % 1,623m 5.9°C Slight Gale
10:00 9.3°C 0.0 mm 98% 20 mph 38 mph 0.00 cm % 1,550m 6.5°C Slight Gale
11:00 9.9°C light rain 0.4 mm 98% 22 mph 40 mph 0.00 cm % 1,978m 8.1°C Slight Gale
12:00 11.1°C light rain 0.5 mm 98% 21 mph 39 mph 0.00 cm % 1,852m 7.5°C Slight Gale
13:00 10.5°C rainfall in vicinity 0.2 mm 98% 24 mph 44 mph 0.00 cm % 1,401m 6.3°C Slight Gale
14:00 11.0°C 0.0 mm 99% 24 mph 44 mph 0.00 cm % 1,463m 5.4°C Slight Gale
15:00 11.8°C 0.0 mm 80% 26 mph 48 mph 0.00 cm % 1,184m 4.6°C Slight Gale